Time;durP1;ratioP1;P1;durP2;ratioP2;P2;SDS_P1;SDS_P2;PMS_P1;PMS_P2;Temp;Humidity;BMP_temperature;BMP_pressure;BME280_temperature;BME280_humidity;BME280_pressure;Samples;Min_cycle;Max_cycle;Signal;HPM_P1;HPM_P2
2023/10/30 00:01:45;;;;;;;4.20;0.90;;;;;;;;;;5058100;28;20060;-68
2023/10/30 00:04:12;;;;;;;10.57;0.93;;;;;;;;;;5053612;28;20052;-67
2023/10/30 00:06:39;;;;;;;10.73;1.02;;;;;;;;;;5059466;28;20060;-67
2023/10/30 00:09:06;;;;;;;7.45;1.02;;;;;;;;;;5055642;28;20045;-66
2023/10/30 00:11:34;;;;;;;11.30;1.27;;;;;;;;;;5059509;28;20060;-67
2023/10/30 00:14:04;;;;;;;3.72;0.90;;;;;;;;;;5061597;28;20086;-67
2023/10/30 00:16:31;;;;;;;10.05;1.13;;;;;;;;;;5061923;28;20048;-66
2023/10/30 00:19:02;;;;;;;5.28;0.88;;;;;;;;;;5060175;28;20049;-66
2023/10/30 00:21:29;;;;;;;12.75;1.35;;;;;;;;;;5064312;28;20044;-66
2023/10/30 00:23:56;;;;;;;16.33;1.00;;;;;;;;;;5056299;28;20075;-66
2023/10/30 00:26:24;;;;;;;4.25;0.75;;;;;;;;;;5061654;28;20044;-66
2023/10/30 00:28:51;;;;;;;6.80;1.08;;;;;;;;;;5062173;28;20052;-67
2023/10/30 00:31:19;;;;;;;15.07;1.05;;;;;;;;;;5061063;28;20060;-66
2023/10/30 00:33:46;;;;;;;11.40;0.85;;;;;;;;;;5058390;28;20484;-66
2023/10/30 00:36:15;;;;;;;6.05;0.65;;;;;;;;;;5060563;28;20510;-66
2023/10/30 00:38:42;;;;;;;7.72;0.82;;;;;;;;;;5055920;28;20049;-66
2023/10/30 00:41:10;;;;;;;6.72;0.80;;;;;;;;;;5057820;28;20504;-66
2023/10/30 00:43:38;;;;;;;7.00;1.20;;;;;;;;;;5052978;28;20118;-66
2023/10/30 00:46:06;;;;;;;5.40;0.75;;;;;;;;;;5056751;28;20130;-67
2023/10/30 00:48:33;;;;;;;10.57;0.93;;;;;;;;;;5055249;28;20064;-67
2023/10/30 00:51:01;;;;;;;8.52;1.13;;;;;;;;;;5060412;28;20058;-66
2023/10/30 00:53:29;;;;;;;10.38;1.10;;;;;;;;;;5055973;28;20049;-65
2023/10/30 00:55:57;;;;;;;6.93;0.80;;;;;;;;;;5056798;28;20110;-65
2023/10/30 00:58:24;;;;;;;5.18;0.70;;;;;;;;;;5058795;28;20063;-66
2023/10/30 01:00:51;;;;;;;3.75;1.10;;;;;;;;;;5065231;28;20102;-66
2023/10/30 01:03:19;;;;;;;6.72;0.68;;;;;;;;;;5062600;28;20055;-66
2023/10/30 01:05:47;;;;;;;4.07;0.60;;;;;;;;;;5059311;28;20468;-66
2023/10/30 01:08:15;;;;;;;7.13;1.05;;;;;;;;;;5059427;28;20049;-67
2023/10/30 01:10:43;;;;;;;4.85;0.63;;;;;;;;;;5063274;28;20488;-66
2023/10/30 01:13:10;;;;;;;4.13;0.52;;;;;;;;;;5056683;28;20504;-67
2023/10/30 01:15:38;;;;;;;2.00;0.43;;;;;;;;;;5054027;28;20064;-66
2023/10/30 01:18:06;;;;;;;3.28;0.50;;;;;;;;;;5062276;28;20060;-66
2023/10/30 01:20:33;;;;;;;6.65;0.88;;;;;;;;;;5060914;28;20129;-66
2023/10/30 01:23:00;;;;;;;3.65;0.40;;;;;;;;;;5056858;28;20045;-66
2023/10/30 01:25:28;;;;;;;2.75;0.50;;;;;;;;;;5055787;28;20045;-66
2023/10/30 01:27:56;;;;;;;5.88;0.65;;;;;;;;;;5056636;28;20053;-66
2023/10/30 01:30:23;;;;;;;3.10;0.47;;;;;;;;;;5059299;28;20056;-67
2023/10/30 01:32:51;;;;;;;6.22;0.52;;;;;;;;;;5060817;28;20059;-66
2023/10/30 01:35:18;;;;;;;4.82;0.60;;;;;;;;;;5058526;28;20051;-66
2023/10/30 01:37:45;;;;;;;7.88;0.65;;;;;;;;;;5057213;28;20052;-66
2023/10/30 01:40:13;;;;;;;6.78;0.68;;;;;;;;;;5060221;28;20053;-67
2023/10/30 01:42:40;;;;;;;11.82;0.70;;;;;;;;;;5054904;28;20044;-67
2023/10/30 01:45:09;;;;;;;5.30;0.60;;;;;;;;;;5057958;28;21326;-67
2023/10/30 01:47:37;;;;;;;9.45;0.52;;;;;;;;;;5054278;28;20395;-67
2023/10/30 01:50:04;;;;;;;3.20;0.50;;;;;;;;;;5058555;28;20056;-67
2023/10/30 01:52:32;;;;;;;5.10;0.80;;;;;;;;;;5057331;28;20063;-67
2023/10/30 01:54:59;;;;;;;6.47;0.50;;;;;;;;;;5057360;28;20040;-67
2023/10/30 01:57:28;;;;;;;5.75;0.82;;;;;;;;;;5057492;28;20053;-67
2023/10/30 01:59:57;;;;;;;7.38;0.80;;;;;;;;;;5052772;28;20049;-67
2023/10/30 02:02:27;;;;;;;4.60;0.50;;;;;;;;;;5061723;28;20052;-67
2023/10/30 02:04:54;;;;;;;5.72;0.40;;;;;;;;;;5058825;28;20052;-67
2023/10/30 02:07:21;;;;;;;10.10;0.82;;;;;;;;;;5064277;28;20496;-66
2023/10/30 02:09:49;;;;;;;6.38;0.73;;;;;;;;;;5062347;28;20064;-67
2023/10/30 02:12:16;;;;;;;11.32;0.80;;;;;;;;;;5067954;28;20118;-66
2023/10/30 02:14:43;;;;;;;7.90;0.82;;;;;;;;;;5062180;28;20068;-66
2023/10/30 02:17:11;;;;;;;7.88;1.85;;;;;;;;;;5050993;28;20049;-66
2023/10/30 02:19:39;;;;;;;5.13;0.50;;;;;;;;;;5060989;28;20041;-69
2023/10/30 02:22:07;;;;;;;4.45;0.65;;;;;;;;;;5061600;28;20084;-67
2023/10/30 02:24:34;;;;;;;7.78;0.82;;;;;;;;;;5058777;28;20051;-66
2023/10/30 02:27:03;;;;;;;7.03;0.73;;;;;;;;;;5050811;28;20499;-66
2023/10/30 02:29:30;;;;;;;11.38;1.02;;;;;;;;;;5057857;28;20048;-66
2023/10/30 02:31:57;;;;;;;4.68;0.68;;;;;;;;;;5058618;28;20484;-67
2023/10/30 02:34:25;;;;;;;4.53;0.70;;;;;;;;;;5061091;28;20052;-67
2023/10/30 02:36:54;;;;;;;7.63;0.73;;;;;;;;;;5062599;28;20059;-66
2023/10/30 02:39:21;;;;;;;9.52;1.10;;;;;;;;;;5058031;28;20084;-67
2023/10/30 02:41:48;;;;;;;6.03;0.50;;;;;;;;;;5072739;28;20045;-65
2023/10/30 02:44:17;;;;;;;5.60;0.57;;;;;;;;;;5061300;28;20496;-67
2023/10/30 02:46:44;;;;;;;2.97;0.60;;;;;;;;;;5069306;28;20055;-67
2023/10/30 02:49:11;;;;;;;4.90;0.50;;;;;;;;;;5060602;28;20069;-66
2023/10/30 02:51:38;;;;;;;2.45;0.60;;;;;;;;;;5062259;28;20048;-66
2023/10/30 02:54:06;;;;;;;4.45;0.60;;;;;;;;;;5061902;28;20092;-68
2023/10/30 02:56:33;;;;;;;5.55;0.88;;;;;;;;;;5065543;28;20526;-66
2023/10/30 02:59:00;;;;;;;2.92;0.50;;;;;;;;;;5064680;28;20051;-67
2023/10/30 03:01:29;;;;;;;2.50;0.90;;;;;;;;;;5063761;28;20515;-66
2023/10/30 03:03:56;;;;;;;3.78;0.57;;;;;;;;;;5056504;28;20048;-66
2023/10/30 03:06:25;;;;;;;6.28;0.80;;;;;;;;;;5064123;28;20049;-68
2023/10/30 03:08:52;;;;;;;6.45;1.10;;;;;;;;;;5065665;28;20079;-67
2023/10/30 03:11:19;;;;;;;5.03;0.88;;;;;;;;;;5064244;28;20048;-67
2023/10/30 03:13:46;;;;;;;2.28;0.60;;;;;;;;;;5056166;28;20056;-66
2023/10/30 03:16:14;;;;;;;3.35;1.00;;;;;;;;;;5061945;28;20480;-67
2023/10/30 03:18:42;;;;;;;6.70;1.13;;;;;;;;;;5065546;28;20385;-66
2023/10/30 03:21:09;;;;;;;3.40;1.00;;;;;;;;;;5057744;28;20415;-67
2023/10/30 03:23:37;;;;;;;5.53;1.00;;;;;;;;;;5061241;28;20060;-69
2023/10/30 03:26:04;;;;;;;8.23;1.25;;;;;;;;;;5057448;28;20579;-67
2023/10/30 03:28:31;;;;;;;9.93;1.35;;;;;;;;;;5056368;28;20068;-66
2023/10/30 03:31:05;;;;;;;4.93;1.20;;;;;;;;;;5056624;28;20048;-68
2023/10/30 03:33:32;;;;;;;6.22;1.20;;;;;;;;;;5067136;28;20132;-68
2023/10/30 03:36:01;;;;;;;7.05;1.10;;;;;;;;;;5060741;28;20045;-66
2023/10/30 03:38:28;;;;;;;11.20;1.35;;;;;;;;;;5064115;28;20049;-67
2023/10/30 03:40:55;;;;;;;8.18;1.33;;;;;;;;;;5057207;28;20396;-67
2023/10/30 03:43:22;;;;;;;4.55;1.10;;;;;;;;;;5061792;28;20052;-68
2023/10/30 03:45:50;;;;;;;5.82;1.15;;;;;;;;;;5057751;28;20379;-66
2023/10/30 03:48:17;;;;;;;9.18;1.38;;;;;;;;;;5058732;28;20052;-68
2023/10/30 03:50:44;;;;;;;6.53;1.10;;;;;;;;;;5057966;28;20057;-68
2023/10/30 03:53:13;;;;;;;4.68;1.25;;;;;;;;;;5057603;28;20436;-67
2023/10/30 03:55:40;;;;;;;6.78;1.00;;;;;;;;;;5054590;28;20051;-67
2023/10/30 03:58:07;;;;;;;7.35;1.08;;;;;;;;;;5055500;28;20048;-67
2023/10/30 04:00:34;;;;;;;9.05;1.50;;;;;;;;;;5053629;28;20041;-67
2023/10/30 04:03:01;;;;;;;7.97;1.30;;;;;;;;;;5060776;28;20388;-67
2023/10/30 04:05:29;;;;;;;9.27;1.20;;;;;;;;;;5061034;28;20049;-67
2023/10/30 04:07:56;;;;;;;11.60;1.60;;;;;;;;;;5058730;28;20475;-67
2023/10/30 04:10:24;;;;;;;12.30;1.75;;;;;;;;;;5057474;28;20056;-67
2023/10/30 04:12:52;;;;;;;12.85;1.45;;;;;;;;;;5057143;28;20053;-67
2023/10/30 04:15:19;;;;;;;7.25;1.48;;;;;;;;;;5056163;28;20049;-66
2023/10/30 04:17:47;;;;;;;4.68;1.08;;;;;;;;;;5056725;28;20095;-66
2023/10/30 04:20:14;;;;;;;6.38;1.30;;;;;;;;;;5062202;28;20049;-66
2023/10/30 04:22:41;;;;;;;5.05;1.40;;;;;;;;;;5065742;28;20503;-66
2023/10/30 04:25:09;;;;;;;11.98;1.25;;;;;;;;;;5061959;28;20473;-67
2023/10/30 04:27:38;;;;;;;11.93;1.30;;;;;;;;;;5057496;28;20048;-66
2023/10/30 04:30:06;;;;;;;15.73;2.00;;;;;;;;;;5063248;28;20480;-66
2023/10/30 04:32:33;;;;;;;11.40;2.05;;;;;;;;;;5056839;28;20063;-68
2023/10/30 04:35:00;;;;;;;10.02;1.58;;;;;;;;;;5062161;28;20053;-65
2023/10/30 04:37:27;;;;;;;8.73;1.13;;;;;;;;;;5056718;28;20045;-67
2023/10/30 04:39:55;;;;;;;12.20;1.40;;;;;;;;;;5062505;28;20050;-66
2023/10/30 04:42:22;;;;;;;8.75;1.17;;;;;;;;;;5058429;28;20060;-66
2023/10/30 04:44:50;;;;;;;10.48;1.20;;;;;;;;;;5061224;28;20088;-68
2023/10/30 04:47:20;;;;;;;17.33;1.77;;;;;;;;;;5062451;28;20488;-65
2023/10/30 04:49:47;;;;;;;7.03;1.13;;;;;;;;;;5059130;28;20090;-68
2023/10/30 04:52:14;;;;;;;6.90;1.25;;;;;;;;;;5060731;28;20136;-66
2023/10/30 04:54:41;;;;;;;10.45;1.60;;;;;;;;;;5060336;28;20437;-66
2023/10/30 04:57:09;;;;;;;5.97;1.42;;;;;;;;;;5057401;28;20041;-66
2023/10/30 04:59:36;;;;;;;4.95;1.15;;;;;;;;;;5058095;28;20044;-66
2023/10/30 05:02:05;;;;;;;7.82;1.20;;;;;;;;;;5057974;28;20127;-67
2023/10/30 05:04:33;;;;;;;12.77;1.33;;;;;;;;;;5056756;28;20071;-67
2023/10/30 05:07:00;;;;;;;11.80;1.27;;;;;;;;;;5061907;28;20135;-65
2023/10/30 05:09:27;;;;;;;11.10;1.60;;;;;;;;;;5060098;28;20080;-65
2023/10/30 05:11:55;;;;;;;9.93;1.58;;;;;;;;;;5062268;28;20079;-66
2023/10/30 05:14:22;;;;;;;13.65;1.30;;;;;;;;;;5057277;28;20395;-67
2023/10/30 05:16:49;;;;;;;9.43;1.30;;;;;;;;;;5057886;28;20040;-67
2023/10/30 05:19:18;;;;;;;7.63;0.93;;;;;;;;;;5061239;28;20114;-67
2023/10/30 05:21:45;;;;;;;12.68;1.52;;;;;;;;;;5059219;28;20040;-67
2023/10/30 05:24:12;;;;;;;7.68;1.20;;;;;;;;;;5057879;28;20065;-67
2023/10/30 05:26:39;;;;;;;9.82;1.17;;;;;;;;;;5053484;28;20041;-67
2023/10/30 05:29:07;;;;;;;11.18;1.25;;;;;;;;;;5061803;28;20057;-66
2023/10/30 05:31:34;;;;;;;13.82;1.45;;;;;;;;;;5051990;28;21042;-67
2023/10/30 05:34:01;;;;;;;8.57;1.02;;;;;;;;;;5059597;28;20417;-67
2023/10/30 05:36:30;;;;;;;10.60;0.98;;;;;;;;;;5058192;28;20059;-68
2023/10/30 05:38:57;;;;;;;10.68;1.23;;;;;;;;;;5059118;28;20392;-66
2023/10/30 05:41:24;;;;;;;8.55;1.17;;;;;;;;;;5065564;28;20044;-66
2023/10/30 05:43:52;;;;;;;15.68;1.23;;;;;;;;;;5060706;28;20048;-66
2023/10/30 05:46:19;;;;;;;13.38;1.17;;;;;;;;;;5062252;28;20060;-66
2023/10/30 05:48:46;;;;;;;10.57;1.30;;;;;;;;;;5052379;28;20059;-67
2023/10/30 05:51:14;;;;;;;6.72;1.17;;;;;;;;;;5051719;28;20053;-69
2023/10/30 05:53:43;;;;;;;13.27;1.70;;;;;;;;;;5056290;28;20396;-66
2023/10/30 05:56:10;;;;;;;10.30;1.52;;;;;;;;;;5052297;28;20092;-66
2023/10/30 05:58:37;;;;;;;15.38;1.60;;;;;;;;;;5053820;28;20132;-68
2023/10/30 06:01:05;;;;;;;10.93;1.25;;;;;;;;;;5056429;28;20555;-68
2023/10/30 06:03:32;;;;;;;14.30;1.42;;;;;;;;;;5062199;28;20048;-68
2023/10/30 06:05:59;;;;;;;10.20;1.20;;;;;;;;;;5059516;28;20063;-66
2023/10/30 06:08:27;;;;;;;13.02;1.23;;;;;;;;;;5060588;28;20132;-67
2023/10/30 06:10:55;;;;;;;7.78;1.45;;;;;;;;;;5051487;28;20503;-66
2023/10/30 06:13:22;;;;;;;11.00;1.50;;;;;;;;;;5055393;28;20052;-66
2023/10/30 06:15:50;;;;;;;8.93;1.42;;;;;;;;;;5058009;28;20139;-66
2023/10/30 06:18:17;;;;;;;5.07;1.00;;;;;;;;;;5066562;28;20040;-66
2023/10/30 06:20:46;;;;;;;8.38;1.13;;;;;;;;;;5053571;28;20408;-66
2023/10/30 06:23:13;;;;;;;12.23;1.52;;;;;;;;;;5057127;28;20049;-69
2023/10/30 06:25:40;;;;;;;13.02;1.35;;;;;;;;;;5056652;28;20063;-66
2023/10/30 06:28:10;;;;;;;6.40;0.93;;;;;;;;;;5060638;28;20515;-67
2023/10/30 06:30:37;;;;;;;8.25;1.35;;;;;;;;;;5052573;28;20052;-67
2023/10/30 06:33:04;;;;;;;8.15;1.00;;;;;;;;;;5060045;28;20061;-68
2023/10/30 06:35:32;;;;;;;10.80;1.30;;;;;;;;;;5059309;28;20052;-66
2023/10/30 06:37:59;;;;;;;10.70;1.10;;;;;;;;;;5054807;28;20045;-67
2023/10/30 06:40:26;;;;;;;11.98;1.45;;;;;;;;;;5057679;28;20080;-67
2023/10/30 06:42:53;;;;;;;7.55;1.23;;;;;;;;;;5059429;28;20053;-67
2023/10/30 06:45:22;;;;;;;12.60;1.30;;;;;;;;;;5055576;28;20490;-66
2023/10/30 06:47:50;;;;;;;4.00;1.00;;;;;;;;;;5061426;28;20570;-67
2023/10/30 06:50:17;;;;;;;13.63;1.23;;;;;;;;;;5050479;28;20052;-66
2023/10/30 06:52:44;;;;;;;12.77;1.40;;;;;;;;;;5060321;28;20136;-66
2023/10/30 06:55:11;;;;;;;15.35;1.65;;;;;;;;;;5057536;28;20048;-68
2023/10/30 06:57:39;;;;;;;11.68;1.17;;;;;;;;;;5061773;28;20044;-68
2023/10/30 07:00:07;;;;;;;14.18;1.83;;;;;;;;;;5053769;28;20053;-66
2023/10/30 07:02:35;;;;;;;13.93;1.60;;;;;;;;;;5058222;28;20088;-66
2023/10/30 07:05:03;;;;;;;11.63;1.63;;;;;;;;;;5057400;28;20076;-67
2023/10/30 07:07:30;;;;;;;7.38;1.10;;;;;;;;;;5053446;28;20141;-68
2023/10/30 07:09:57;;;;;;;11.05;1.40;;;;;;;;;;5060753;28;20082;-66
2023/10/30 07:12:24;;;;;;;9.57;1.20;;;;;;;;;;5061350;28;20056;-66
2023/10/30 07:14:52;;;;;;;8.82;1.20;;;;;;;;;;5058546;28;20750;-67
2023/10/30 07:17:19;;;;;;;9.55;1.42;;;;;;;;;;5058907;28;20057;-67
2023/10/30 07:19:48;;;;;;;11.23;1.58;;;;;;;;;;5057253;28;20040;-66
2023/10/30 07:22:15;;;;;;;10.55;1.50;;;;;;;;;;5053543;28;20048;-67
2023/10/30 07:24:43;;;;;;;9.15;1.27;;;;;;;;;;5061491;28;20041;-69
2023/10/30 07:27:10;;;;;;;11.85;1.33;;;;;;;;;;5060932;28;20102;-66
2023/10/30 07:29:37;;;;;;;5.13;1.17;;;;;;;;;;5056537;28;20047;-67
2023/10/30 07:32:05;;;;;;;9.25;1.17;;;;;;;;;;5056261;28;20075;-66
2023/10/30 07:34:32;;;;;;;12.02;1.40;;;;;;;;;;5062837;28;20052;-66
2023/10/30 07:37:00;;;;;;;12.68;1.98;;;;;;;;;;5053606;28;20045;-67
2023/10/30 07:39:28;;;;;;;10.43;1.33;;;;;;;;;;5065561;28;20128;-67
2023/10/30 07:41:55;;;;;;;9.48;1.02;;;;;;;;;;5055959;28;20044;-67
2023/10/30 07:44:22;;;;;;;10.63;1.27;;;;;;;;;;5060202;28;20048;-68
2023/10/30 07:46:49;;;;;;;11.15;1.60;;;;;;;;;;5052747;28;20508;-67
2023/10/30 07:49:17;;;;;;;9.57;1.30;;;;;;;;;;5058036;28;20057;-66
2023/10/30 07:51:44;;;;;;;14.98;1.50;;;;;;;;;;5054768;28;20055;-66
2023/10/30 07:54:14;;;;;;;10.48;1.33;;;;;;;;;;5060773;28;20049;-67
2023/10/30 07:56:41;;;;;;;10.73;1.23;;;;;;;;;;5055426;28;20131;-67
2023/10/30 07:59:09;;;;;;;10.02;1.73;;;;;;;;;;5061182;28;20087;-67
2023/10/30 08:01:38;;;;;;;14.02;1.85;;;;;;;;;;5064312;28;20097;-67
2023/10/30 08:04:09;;;;;;;6.05;0.80;;;;;;;;;;5064230;28;20509;-67
2023/10/30 08:06:37;;;;;;;11.15;1.45;;;;;;;;;;5059645;28;20060;-67
2023/10/30 08:09:05;;;;;;;12.70;1.25;;;;;;;;;;5058501;28;20059;-68
2023/10/30 08:11:33;;;;;;;10.88;1.30;;;;;;;;;;5061752;28;20048;-67
2023/10/30 08:14:00;;;;;;;11.65;1.48;;;;;;;;;;5059705;28;20083;-67
2023/10/30 08:16:28;;;;;;;9.13;1.10;;;;;;;;;;5061219;28;20127;-67
2023/10/30 08:18:55;;;;;;;14.63;1.42;;;;;;;;;;5060000;28;20063;-67
2023/10/30 08:21:22;;;;;;;13.40;1.30;;;;;;;;;;5054476;28;20519;-66
2023/10/30 08:23:50;;;;;;;7.90;1.42;;;;;;;;;;5066176;28;20049;-67
2023/10/30 08:26:17;;;;;;;6.90;0.98;;;;;;;;;;5057421;28;20056;-67
2023/10/30 08:28:46;;;;;;;11.05;1.52;;;;;;;;;;5059045;28;20045;-68
2023/10/30 08:31:16;;;;;;;7.72;1.52;;;;;;;;;;5063714;28;20060;-68
2023/10/30 08:33:43;;;;;;;10.57;1.17;;;;;;;;;;5061663;28;20052;-66
2023/10/30 08:36:11;;;;;;;6.43;1.40;;;;;;;;;;5055622;28;20048;-66
2023/10/30 08:38:40;;;;;;;9.55;1.38;;;;;;;;;;5060002;28;20094;-67
2023/10/30 08:41:12;;;;;;;8.02;1.10;;;;;;;;;;5062296;28;20064;-67
2023/10/30 08:43:39;;;;;;;10.38;1.08;;;;;;;;;;5056020;28;20045;-66
2023/10/30 08:46:08;;;;;;;7.95;1.52;;;;;;;;;;5066355;28;20056;-67
2023/10/30 08:48:35;;;;;;;11.15;0.93;;;;;;;;;;5055983;28;20052;-66
2023/10/30 08:51:04;;;;;;;12.23;1.60;;;;;;;;;;5052068;28;20045;-67
2023/10/30 08:53:32;;;;;;;10.43;1.13;;;;;;;;;;5062586;28;20067;-66
2023/10/30 08:56:00;;;;;;;9.77;1.17;;;;;;;;;;5059269;28;20059;-66
2023/10/30 08:58:27;;;;;;;10.43;1.65;;;;;;;;;;5056364;28;20052;-66
2023/10/30 09:00:54;;;;;;;11.75;1.27;;;;;;;;;;5060429;28;20053;-68
2023/10/30 09:03:23;;;;;;;9.07;1.38;;;;;;;;;;5054110;28;20045;-66
2023/10/30 09:05:50;;;;;;;12.55;1.10;;;;;;;;;;5060916;28;20269;-66
2023/10/30 09:08:17;;;;;;;9.43;1.30;;;;;;;;;;5058819;28;20037;-67
2023/10/30 09:10:44;;;;;;;13.43;1.65;;;;;;;;;;5057890;28;20561;-67
2023/10/30 09:13:12;;;;;;;7.93;1.10;;;;;;;;;;5057666;28;20061;-68
2023/10/30 09:15:39;;;;;;;14.00;1.40;;;;;;;;;;5063912;28;20049;-67
2023/10/30 09:18:06;;;;;;;7.32;1.48;;;;;;;;;;5054943;28;20045;-68
2023/10/30 09:20:35;;;;;;;16.02;1.58;;;;;;;;;;5059423;28;20063;-69
2023/10/30 09:23:02;;;;;;;4.72;1.15;;;;;;;;;;5055590;28;20048;-67
2023/10/30 09:25:29;;;;;;;13.20;1.55;;;;;;;;;;5055712;28;20053;-68
2023/10/30 09:27:56;;;;;;;13.77;1.83;;;;;;;;;;5055131;28;20041;-67
2023/10/30 09:30:29;;;;;;;7.10;1.88;;;;;;;;;;5055004;28;20049;-66
2023/10/30 09:32:56;;;;;;;13.23;1.60;;;;;;;;;;5055933;28;20063;-67
2023/10/30 09:35:24;;;;;;;9.55;1.25;;;;;;;;;;5057029;28;20065;-67
2023/10/30 09:37:53;;;;;;;10.73;1.77;;;;;;;;;;5050568;28;20052;-68
2023/10/30 09:40:22;;;;;;;7.50;1.38;;;;;;;;;;5056992;28;20053;-67
2023/10/30 09:42:52;;;;;;;11.55;1.80;;;;;;;;;;5054984;28;20041;-67
2023/10/30 09:45:20;;;;;;;11.35;1.70;;;;;;;;;;5052442;28;20092;-68
2023/10/30 09:47:48;;;;;;;14.10;1.58;;;;;;;;;;5054446;28;20098;-67
2023/10/30 09:50:16;;;;;;;8.45;2.00;;;;;;;;;;5057011;28;20086;-67
2023/10/30 09:52:43;;;;;;;14.90;1.85;;;;;;;;;;5063534;28;20400;-67
2023/10/30 09:55:12;;;;;;;5.45;1.40;;;;;;;;;;5059618;28;20060;-67
2023/10/30 09:57:40;;;;;;;11.07;2.28;;;;;;;;;;5060133;28;20131;-67
2023/10/30 10:00:08;;;;;;;12.43;1.52;;;;;;;;;;5058441;28;20132;-67
2023/10/30 10:02:36;;;;;;;10.27;2.10;;;;;;;;;;5062545;28;20113;-66
2023/10/30 10:05:04;;;;;;;12.27;1.70;;;;;;;;;;5058042;28;20063;-66
2023/10/30 10:07:32;;;;;;;12.45;1.67;;;;;;;;;;5055352;28;20052;-66
2023/10/30 10:10:00;;;;;;;6.97;1.40;;;;;;;;;;5061529;28;20488;-67
2023/10/30 10:12:30;;;;;;;9.60;1.60;;;;;;;;;;5055921;28;20057;-66
2023/10/30 10:14:57;;;;;;;16.10;2.05;;;;;;;;;;5059347;28;20131;-67
2023/10/30 10:17:25;;;;;;;7.00;1.65;;;;;;;;;;5058687;28;20527;-67
2023/10/30 10:19:52;;;;;;;10.90;1.40;;;;;;;;;;5062170;28;20063;-67
2023/10/30 10:22:29;;;;;;;13.75;1.80;;;;;;;;;;5062248;28;20044;-67
2023/10/30 10:24:56;;;;;;;15.73;2.10;;;;;;;;;;5059089;28;20066;-66
2023/10/30 10:27:24;;;;;;;8.70;1.58;;;;;;;;;;5058809;28;20059;-68
2023/10/30 10:29:56;;;;;;;10.40;1.63;;;;;;;;;;5059143;28;20158;-67
2023/10/30 10:32:26;;;;;;;6.97;1.70;;;;;;;;;;5060163;28;20071;-68
2023/10/30 10:34:54;;;;;;;10.65;1.65;;;;;;;;;;5066464;28;20070;-67
2023/10/30 10:37:21;;;;;;;13.30;1.70;;;;;;;;;;5059484;28;20053;-67
2023/10/30 10:39:49;;;;;;;12.35;1.70;;;;;;;;;;5056033;28;20569;-68
2023/10/30 10:42:18;;;;;;;10.75;1.30;;;;;;;;;;5054621;28;20371;-67
2023/10/30 10:44:46;;;;;;;10.98;2.13;;;;;;;;;;5063141;28;20063;-68
2023/10/30 10:47:15;;;;;;;7.97;1.80;;;;;;;;;;5052331;28;20403;-69
2023/10/30 10:49:42;;;;;;;6.28;1.33;;;;;;;;;;5058022;28;20494;-67
2023/10/30 10:52:12;;;;;;;11.05;1.48;;;;;;;;;;5056136;28;20053;-67
2023/10/30 10:54:43;;;;;;;11.50;1.98;;;;;;;;;;5053414;28;20053;-66
2023/10/30 10:57:10;;;;;;;12.90;1.77;;;;;;;;;;5058374;28;20049;-67
2023/10/30 10:59:38;;;;;;;7.35;1.70;;;;;;;;;;5061612;28;20049;-67
2023/10/30 11:02:10;;;;;;;15.45;1.60;;;;;;;;;;5062875;28;20492;-67
2023/10/30 11:04:39;;;;;;;9.88;1.52;;;;;;;;;;5063872;28;20053;-68
2023/10/30 11:07:09;;;;;;;7.53;1.27;;;;;;;;;;5063067;28;20049;-67
2023/10/30 11:09:41;;;;;;;10.70;1.60;;;;;;;;;;5060828;28;20041;-68
2023/10/30 11:12:12;;;;;;;19.98;1.55;;;;;;;;;;5061780;28;20056;-66
2023/10/30 11:14:44;;;;;;;10.45;1.60;;;;;;;;;;5068132;28;20050;-67
2023/10/30 11:17:11;;;;;;;11.88;1.85;;;;;;;;;;5059219;28;20048;-68
2023/10/30 11:19:40;;;;;;;8.52;1.50;;;;;;;;;;5063412;28;20041;-68
2023/10/30 11:22:07;;;;;;;7.18;1.20;;;;;;;;;;5064535;28;20036;-66
2023/10/30 11:24:38;;;;;;;15.68;1.80;;;;;;;;;;5055342;28;20053;-69
2023/10/30 11:27:25;;;;;;;14.55;1.90;;;;;;;;;;5055132;28;20135;-68
2023/10/30 11:29:57;;;;;;;8.55;1.40;;;;;;;;;;5061745;28;20041;-69
2023/10/30 11:32:25;;;;;;;8.38;1.70;;;;;;;;;;5060527;28;20085;-66
2023/10/30 11:34:53;;;;;;;13.93;1.60;;;;;;;;;;5060480;28;20048;-66
2023/10/30 11:37:22;;;;;;;10.50;1.92;;;;;;;;;;5062528;28;20530;-68
2023/10/30 11:39:50;;;;;;;12.05;1.52;;;;;;;;;;5064014;28;20128;-67
2023/10/30 11:42:28;;;;;;;6.65;1.42;;;;;;;;;;5062546;28;20511;-68
2023/10/30 11:45:10;;;;;;;9.05;1.42;;;;;;;;;;5060302;28;20123;-66
2023/10/30 11:47:39;;;;;;;8.55;1.42;;;;;;;;;;5062661;28;20097;-68
2023/10/30 11:50:08;;;;;;;8.68;1.52;;;;;;;;;;5058285;28;20048;-66
2023/10/30 11:52:36;;;;;;;8.15;1.60;;;;;;;;;;5063806;28;20053;-67
2023/10/30 11:55:06;;;;;;;8.68;1.45;;;;;;;;;;5058819;28;20049;-67
2023/10/30 11:57:34;;;;;;;12.77;1.67;;;;;;;;;;5063503;28;20052;-68
2023/10/30 12:00:02;;;;;;;10.25;1.83;;;;;;;;;;5060549;28;20049;-68
2023/10/30 12:02:29;;;;;;;8.20;1.40;;;;;;;;;;5060001;28;20089;-67
2023/10/30 12:05:05;;;;;;;11.40;1.33;;;;;;;;;;5058953;28;20045;-67
2023/10/30 12:07:34;;;;;;;9.60;1.30;;;;;;;;;;5055522;28;20067;-68
2023/10/30 12:10:02;;;;;;;9.30;1.30;;;;;;;;;;5059521;28;20064;-67
2023/10/30 12:12:29;;;;;;;19.67;1.42;;;;;;;;;;5058851;28;20097;-66
2023/10/30 12:14:59;;;;;;;9.25;1.63;;;;;;;;;;5063873;28;20047;-67
2023/10/30 12:17:26;;;;;;;10.18;1.38;;;;;;;;;;5058161;28;20810;-67
2023/10/30 12:19:53;;;;;;;8.68;1.75;;;;;;;;;;5058211;28;20049;-68
2023/10/30 12:22:20;;;;;;;11.07;1.38;;;;;;;;;;5060275;28;20048;-66
2023/10/30 12:24:50;;;;;;;11.18;1.58;;;;;;;;;;5061841;28;20049;-68
2023/10/30 12:27:21;;;;;;;9.27;1.67;;;;;;;;;;5062136;28;20055;-67
2023/10/30 12:29:53;;;;;;;6.55;1.52;;;;;;;;;;5059796;28;20040;-69
2023/10/30 12:32:21;;;;;;;7.30;1.13;;;;;;;;;;5057438;28;20044;-68
2023/10/30 12:34:48;;;;;;;11.68;1.67;;;;;;;;;;5065616;28;20080;-65
2023/10/30 12:37:19;;;;;;;8.73;1.23;;;;;;;;;;5057817;28;20048;-66
2023/10/30 12:40:02;;;;;;;8.05;1.60;;;;;;;;;;5061899;28;20480;-66
2023/10/30 12:42:30;;;;;;;10.77;1.38;;;;;;;;;;5058915;28;20648;-66
2023/10/30 12:44:58;;;;;;;6.93;1.40;;;;;;;;;;5057879;28;20095;-66
2023/10/30 12:47:25;;;;;;;6.50;1.45;;;;;;;;;;5063414;28;20396;-65
2023/10/30 12:49:52;;;;;;;9.07;1.60;;;;;;;;;;5055631;28;20049;-66
2023/10/30 12:52:19;;;;;;;9.30;1.60;;;;;;;;;;5052003;28;20079;-65
2023/10/30 12:54:46;;;;;;;11.13;1.67;;;;;;;;;;5056448;28;20053;-65
2023/10/30 12:57:14;;;;;;;11.02;1.83;;;;;;;;;;5056586;28;20226;-66
2023/10/30 12:59:42;;;;;;;10.05;1.88;;;;;;;;;;5063429;28;20036;-66
2023/10/30 13:02:10;;;;;;;10.30;1.92;;;;;;;;;;5058178;28;20053;-66
2023/10/30 13:04:37;;;;;;;8.05;1.65;;;;;;;;;;5058326;28;20694;-66
2023/10/30 13:07:04;;;;;;;9.55;1.55;;;;;;;;;;5063615;28;20052;-66
2023/10/30 13:09:31;;;;;;;8.63;1.98;;;;;;;;;;5059511;28;20060;-65
2023/10/30 13:11:59;;;;;;;6.40;1.83;;;;;;;;;;5054511;28;20045;-65
2023/10/30 13:14:26;;;;;;;10.50;1.98;;;;;;;;;;5062975;28;20052;-65
2023/10/30 13:16:55;;;;;;;11.75;1.65;;;;;;;;;;5065445;28;20051;-65
2023/10/30 13:19:22;;;;;;;10.25;1.80;;;;;;;;;;5062429;28;20063;-65
2023/10/30 13:21:49;;;;;;;10.15;1.80;;;;;;;;;;5053897;28;20555;-66
2023/10/30 13:24:17;;;;;;;7.25;1.65;;;;;;;;;;5055478;28;20044;-65
2023/10/30 13:26:44;;;;;;;5.90;1.35;;;;;;;;;;5058054;28;20064;-66
2023/10/30 13:29:11;;;;;;;12.02;1.63;;;;;;;;;;5063656;28;20499;-66
2023/10/30 13:31:38;;;;;;;11.45;1.92;;;;;;;;;;5056854;28;20048;-65
2023/10/30 13:34:07;;;;;;;7.95;1.40;;;;;;;;;;5055202;28;20049;-66
2023/10/30 13:36:34;;;;;;;9.25;1.98;;;;;;;;;;5051277;28;20052;-68
2023/10/30 13:39:02;;;;;;;8.98;1.60;;;;;;;;;;5054726;28;20048;-65
2023/10/30 13:41:29;;;;;;;8.95;1.60;;;;;;;;;;5059004;28;20052;-67
2023/10/30 13:43:56;;;;;;;10.23;1.48;;;;;;;;;;5055978;28;20484;-65
2023/10/30 13:46:23;;;;;;;8.60;1.75;;;;;;;;;;5061882;28;20391;-67
2023/10/30 13:48:54;;;;;;;12.00;3.35;;;;;;;;;;5056104;28;20079;-65
2023/10/30 13:51:22;;;;;;;9.35;1.58;;;;;;;;;;5053832;28;20378;-66
2023/10/30 13:53:53;;;;;;;8.40;1.42;;;;;;;;;;5059095;28;20045;-67
2023/10/30 13:56:20;;;;;;;8.93;1.70;;;;;;;;;;5056170;28;20442;-65
2023/10/30 13:58:49;;;;;;;11.38;2.25;;;;;;;;;;5053919;28;20088;-65
2023/10/30 14:01:17;;;;;;;12.82;2.10;;;;;;;;;;5057581;28;20044;-66
2023/10/30 14:03:44;;;;;;;9.63;1.85;;;;;;;;;;5054853;28;20052;-66
2023/10/30 14:06:11;;;;;;;10.75;1.75;;;;;;;;;;5050446;28;20060;-65
2023/10/30 14:08:40;;;;;;;9.00;1.88;;;;;;;;;;5054141;28;20048;-66
2023/10/30 14:11:07;;;;;;;9.40;1.33;;;;;;;;;;5058590;28;20154;-66
2023/10/30 14:13:35;;;;;;;11.85;1.80;;;;;;;;;;5060235;28;20052;-67
2023/10/30 14:16:02;;;;;;;9.05;1.60;;;;;;;;;;5058933;28;20056;-66
2023/10/30 14:18:29;;;;;;;13.23;1.95;;;;;;;;;;5054623;28;20484;-66
2023/10/30 14:20:57;;;;;;;19.27;2.17;;;;;;;;;;5052718;28;20045;-65
2023/10/30 14:23:24;;;;;;;10.63;1.92;;;;;;;;;;5057354;28;20052;-65
2023/10/30 14:25:52;;;;;;;11.13;1.63;;;;;;;;;;5060707;28;20049;-65
2023/10/30 14:28:20;;;;;;;9.55;1.40;;;;;;;;;;5062113;28;20052;-66
2023/10/30 14:30:47;;;;;;;7.97;1.63;;;;;;;;;;5059812;28;20512;-65
2023/10/30 14:33:14;;;;;;;12.82;1.52;;;;;;;;;;5052535;28;20045;-66
2023/10/30 14:35:41;;;;;;;6.50;1.38;;;;;;;;;;5057021;28;20044;-65
2023/10/30 14:38:09;;;;;;;6.47;1.48;;;;;;;;;;5067438;28;20048;-66
2023/10/30 14:40:36;;;;;;;11.43;1.60;;;;;;;;;;5065451;28;20048;-66
2023/10/30 14:43:04;;;;;;;18.02;1.55;;;;;;;;;;5064334;28;20476;-65